sensor_id;sensor_type;location;lat;lon;timestamp;P1;durP1;ratioP1;P2;durP2;ratioP2
15114;SDS011;7658;51.456;7.622;2022-12-07T00:01:17;123.03;;;56.80;;
15114;SDS011;7658;51.456;7.622;2022-12-07T00:03:43;108.57;;;52.33;;
15114;SDS011;7658;51.456;7.622;2022-12-07T00:06:11;110.80;;;52.73;;
15114;SDS011;7658;51.456;7.622;2022-12-07T00:08:38;103.77;;;53.17;;
15114;SDS011;7658;51.456;7.622;2022-12-07T00:11:06;112.20;;;54.77;;
15114;SDS011;7658;51.456;7.622;2022-12-07T00:13:33;106.57;;;54.50;;
15114;SDS011;7658;51.456;7.622;2022-12-07T00:16:01;104.50;;;53.20;;
15114;SDS011;7658;51.456;7.622;2022-12-07T00:18:28;98.50;;;53.00;;
15114;SDS011;7658;51.456;7.622;2022-12-07T00:20:58;99.83;;;51.53;;
15114;SDS011;7658;51.456;7.622;2022-12-07T00:23:25;99.87;;;50.43;;
15114;SDS011;7658;51.456;7.622;2022-12-07T00:25:51;104.27;;;51.77;;
15114;SDS011;7658;51.456;7.622;2022-12-07T00:28:17;95.57;;;51.33;;
15114;SDS011;7658;51.456;7.622;2022-12-07T00:30:42;99.60;;;52.10;;
15114;SDS011;7658;51.456;7.622;2022-12-07T00:33:08;102.37;;;52.90;;
15114;SDS011;7658;51.456;7.622;2022-12-07T00:35:34;104.20;;;51.53;;
15114;SDS011;7658;51.456;7.622;2022-12-07T00:37:59;94.33;;;50.03;;
15114;SDS011;7658;51.456;7.622;2022-12-07T00:40:25;94.83;;;49.67;;
15114;SDS011;7658;51.456;7.622;2022-12-07T00:42:51;93.77;;;48.07;;
15114;SDS011;7658;51.456;7.622;2022-12-07T00:45:17;98.63;;;50.03;;
15114;SDS011;7658;51.456;7.622;2022-12-07T00:47:42;89.70;;;48.60;;
15114;SDS011;7658;51.456;7.622;2022-12-07T00:50:08;86.83;;;46.77;;
15114;SDS011;7658;51.456;7.622;2022-12-07T00:52:34;88.30;;;46.77;;
15114;SDS011;7658;51.456;7.622;2022-12-07T00:54:59;87.83;;;48.53;;
15114;SDS011;7658;51.456;7.622;2022-12-07T00:57:25;87.23;;;48.07;;
15114;SDS011;7658;51.456;7.622;2022-12-07T00:59:51;81.70;;;46.83;;
15114;SDS011;7658;51.456;7.622;2022-12-07T01:02:20;79.97;;;44.13;;
15114;SDS011;7658;51.456;7.622;2022-12-07T01:04:46;82.13;;;46.67;;
15114;SDS011;7658;51.456;7.622;2022-12-07T01:07:12;89.23;;;44.97;;
15114;SDS011;7658;51.456;7.622;2022-12-07T01:09:37;81.97;;;43.77;;
15114;SDS011;7658;51.456;7.622;2022-12-07T01:12:03;88.50;;;45.73;;
15114;SDS011;7658;51.456;7.622;2022-12-07T01:14:29;90.20;;;48.70;;
15114;SDS011;7658;51.456;7.622;2022-12-07T01:16:55;86.60;;;47.53;;
15114;SDS011;7658;51.456;7.622;2022-12-07T01:19:20;92.50;;;49.43;;
15114;SDS011;7658;51.456;7.622;2022-12-07T01:21:46;85.27;;;48.07;;
15114;SDS011;7658;51.456;7.622;2022-12-07T01:24:12;90.73;;;47.60;;
15114;SDS011;7658;51.456;7.622;2022-12-07T01:26:38;89.43;;;49.23;;
15114;SDS011;7658;51.456;7.622;2022-12-07T01:29:03;91.70;;;49.40;;
15114;SDS011;7658;51.456;7.622;2022-12-07T01:31:29;82.67;;;47.37;;
15114;SDS011;7658;51.456;7.622;2022-12-07T01:33:56;89.10;;;48.67;;
15114;SDS011;7658;51.456;7.622;2022-12-07T01:36:27;90.20;;;47.53;;
15114;SDS011;7658;51.456;7.622;2022-12-07T01:38:56;91.03;;;47.97;;
15114;SDS011;7658;51.456;7.622;2022-12-07T01:41:28;80.27;;;46.13;;
15114;SDS011;7658;51.456;7.622;2022-12-07T01:46:48;77.50;;;45.40;;
15114;SDS011;7658;51.456;7.622;2022-12-07T01:49:16;78.17;;;44.83;;
15114;SDS011;7658;51.456;7.622;2022-12-07T01:54:54;84.93;;;46.13;;
15114;SDS011;7658;51.456;7.622;2022-12-07T01:57:22;78.47;;;46.60;;
15114;SDS011;7658;51.456;7.622;2022-12-07T01:59:49;76.20;;;43.87;;
15114;SDS011;7658;51.456;7.622;2022-12-07T02:02:20;85.23;;;46.13;;
15114;SDS011;7658;51.456;7.622;2022-12-07T02:04:52;88.37;;;47.73;;
15114;SDS011;7658;51.456;7.622;2022-12-07T02:07:19;73.57;;;42.57;;
15114;SDS011;7658;51.456;7.622;2022-12-07T02:09:47;78.00;;;44.40;;
15114;SDS011;7658;51.456;7.622;2022-12-07T02:12:12;78.80;;;45.30;;
15114;SDS011;7658;51.456;7.622;2022-12-07T02:14:38;80.17;;;45.23;;
15114;SDS011;7658;51.456;7.622;2022-12-07T02:17:11;80.33;;;46.63;;
15114;SDS011;7658;51.456;7.622;2022-12-07T02:25:19;81.20;;;43.83;;
15114;SDS011;7658;51.456;7.622;2022-12-07T02:28:07;75.07;;;44.13;;
15114;SDS011;7658;51.456;7.622;2022-12-07T02:30:54;80.77;;;45.27;;
15114;SDS011;7658;51.456;7.622;2022-12-07T02:33:31;70.13;;;42.43;;
15114;SDS011;7658;51.456;7.622;2022-12-07T02:36:05;71.77;;;41.33;;
15114;SDS011;7658;51.456;7.622;2022-12-07T02:41:39;67.30;;;40.40;;
15114;SDS011;7658;51.456;7.622;2022-12-07T02:44:17;62.60;;;38.40;;
15114;SDS011;7658;51.456;7.622;2022-12-07T02:46:50;70.10;;;40.37;;
15114;SDS011;7658;51.456;7.622;2022-12-07T02:49:38;67.47;;;39.87;;
15114;SDS011;7658;51.456;7.622;2022-12-07T02:52:05;71.60;;;39.63;;
15114;SDS011;7658;51.456;7.622;2022-12-07T02:54:31;66.20;;;39.37;;
15114;SDS011;7658;51.456;7.622;2022-12-07T03:10:52;60.37;;;38.03;;
15114;SDS011;7658;51.456;7.622;2022-12-07T03:16:39;61.03;;;37.67;;
15114;SDS011;7658;51.456;7.622;2022-12-07T03:19:15;57.87;;;36.13;;
15114;SDS011;7658;51.456;7.622;2022-12-07T03:21:47;62.60;;;36.50;;
15114;SDS011;7658;51.456;7.622;2022-12-07T03:24:18;59.10;;;36.60;;
15114;SDS011;7658;51.456;7.622;2022-12-07T03:26:53;59.47;;;34.60;;
15114;SDS011;7658;51.456;7.622;2022-12-07T03:29:31;62.87;;;36.73;;
15114;SDS011;7658;51.456;7.622;2022-12-07T03:32:30;53.97;;;35.27;;
15114;SDS011;7658;51.456;7.622;2022-12-07T03:40:28;59.83;;;35.37;;
15114;SDS011;7658;51.456;7.622;2022-12-07T03:43:05;60.60;;;34.23;;
15114;SDS011;7658;51.456;7.622;2022-12-07T03:45:37;55.77;;;35.03;;
15114;SDS011;7658;51.456;7.622;2022-12-07T03:48:16;59.13;;;34.67;;
15114;SDS011;7658;51.456;7.622;2022-12-07T03:54:12;51.33;;;32.77;;
15114;SDS011;7658;51.456;7.622;2022-12-07T03:57:08;51.23;;;32.70;;
15114;SDS011;7658;51.456;7.622;2022-12-07T03:59:37;51.03;;;32.43;;
15114;SDS011;7658;51.456;7.622;2022-12-07T04:02:05;51.57;;;31.30;;
15114;SDS011;7658;51.456;7.622;2022-12-07T04:04:32;48.10;;;31.43;;
15114;SDS011;7658;51.456;7.622;2022-12-07T04:06:58;54.77;;;32.67;;
15114;SDS011;7658;51.456;7.622;2022-12-07T04:09:24;54.67;;;33.83;;
15114;SDS011;7658;51.456;7.622;2022-12-07T04:11:50;53.53;;;32.63;;
15114;SDS011;7658;51.456;7.622;2022-12-07T04:14:16;53.23;;;33.77;;
15114;SDS011;7658;51.456;7.622;2022-12-07T04:16:45;57.27;;;35.40;;
15114;SDS011;7658;51.456;7.622;2022-12-07T04:19:17;57.00;;;35.03;;
15114;SDS011;7658;51.456;7.622;2022-12-07T04:21:44;56.37;;;34.80;;
15114;SDS011;7658;51.456;7.622;2022-12-07T04:24:11;55.10;;;35.60;;
15114;SDS011;7658;51.456;7.622;2022-12-07T04:26:38;55.23;;;33.17;;
15114;SDS011;7658;51.456;7.622;2022-12-07T04:29:04;58.07;;;32.13;;
15114;SDS011;7658;51.456;7.622;2022-12-07T04:31:29;55.37;;;33.17;;
15114;SDS011;7658;51.456;7.622;2022-12-07T04:33:55;49.23;;;29.93;;
15114;SDS011;7658;51.456;7.622;2022-12-07T04:36:21;55.43;;;31.23;;
15114;SDS011;7658;51.456;7.622;2022-12-07T04:38:47;52.10;;;33.37;;
15114;SDS011;7658;51.456;7.622;2022-12-07T04:41:13;49.57;;;29.83;;
15114;SDS011;7658;51.456;7.622;2022-12-07T04:43:39;48.53;;;29.07;;
15114;SDS011;7658;51.456;7.622;2022-12-07T04:46:05;51.17;;;30.83;;
15114;SDS011;7658;51.456;7.622;2022-12-07T04:48:30;49.93;;;31.17;;
15114;SDS011;7658;51.456;7.622;2022-12-07T04:50:56;48.50;;;31.17;;
15114;SDS011;7658;51.456;7.622;2022-12-07T04:53:22;43.63;;;27.90;;
15114;SDS011;7658;51.456;7.622;2022-12-07T04:55:48;46.10;;;29.27;;
15114;SDS011;7658;51.456;7.622;2022-12-07T04:58:14;48.77;;;28.73;;
15114;SDS011;7658;51.456;7.622;2022-12-07T05:00:39;47.27;;;29.77;;
15114;SDS011;7658;51.456;7.622;2022-12-07T05:03:05;48.40;;;30.33;;
15114;SDS011;7658;51.456;7.622;2022-12-07T05:05:31;42.57;;;26.27;;
15114;SDS011;7658;51.456;7.622;2022-12-07T05:07:57;47.53;;;29.10;;
15114;SDS011;7658;51.456;7.622;2022-12-07T05:10:22;40.03;;;27.90;;
15114;SDS011;7658;51.456;7.622;2022-12-07T05:12:48;43.37;;;27.73;;
15114;SDS011;7658;51.456;7.622;2022-12-07T05:15:14;40.43;;;28.13;;
15114;SDS011;7658;51.456;7.622;2022-12-07T05:17:40;43.03;;;27.07;;
15114;SDS011;7658;51.456;7.622;2022-12-07T05:20:06;42.80;;;26.50;;
15114;SDS011;7658;51.456;7.622;2022-12-07T05:22:33;44.93;;;27.50;;
15114;SDS011;7658;51.456;7.622;2022-12-07T05:24:59;44.43;;;28.93;;
15114;SDS011;7658;51.456;7.622;2022-12-07T05:27:25;40.83;;;26.90;;
15114;SDS011;7658;51.456;7.622;2022-12-07T05:29:51;47.90;;;27.90;;
15114;SDS011;7658;51.456;7.622;2022-12-07T05:32:17;40.13;;;27.80;;
15114;SDS011;7658;51.456;7.622;2022-12-07T05:34:43;47.30;;;26.23;;
15114;SDS011;7658;51.456;7.622;2022-12-07T05:37:09;41.33;;;27.23;;
15114;SDS011;7658;51.456;7.622;2022-12-07T05:39:34;42.13;;;26.30;;
15114;SDS011;7658;51.456;7.622;2022-12-07T05:42:00;44.57;;;26.80;;
15114;SDS011;7658;51.456;7.622;2022-12-07T05:44:45;43.13;;;24.90;;
15114;SDS011;7658;51.456;7.622;2022-12-07T05:47:12;40.07;;;25.70;;
15114;SDS011;7658;51.456;7.622;2022-12-07T05:49:38;44.33;;;26.93;;
15114;SDS011;7658;51.456;7.622;2022-12-07T05:52:04;35.90;;;25.10;;
15114;SDS011;7658;51.456;7.622;2022-12-07T05:54:31;37.43;;;25.27;;
15114;SDS011;7658;51.456;7.622;2022-12-07T05:56:57;44.27;;;25.97;;
15114;SDS011;7658;51.456;7.622;2022-12-07T05:59:23;37.87;;;24.33;;
15114;SDS011;7658;51.456;7.622;2022-12-07T06:04:16;41.63;;;25.57;;
15114;SDS011;7658;51.456;7.622;2022-12-07T06:06:42;35.17;;;23.93;;
15114;SDS011;7658;51.456;7.622;2022-12-07T06:09:08;40.80;;;25.93;;
15114;SDS011;7658;51.456;7.622;2022-12-07T06:11:33;37.87;;;25.80;;
15114;SDS011;7658;51.456;7.622;2022-12-07T06:14:17;46.53;;;25.50;;
15114;SDS011;7658;51.456;7.622;2022-12-07T06:16:43;37.53;;;24.27;;
15114;SDS011;7658;51.456;7.622;2022-12-07T06:19:09;44.57;;;25.97;;
15114;SDS011;7658;51.456;7.622;2022-12-07T06:21:35;37.60;;;23.67;;
15114;SDS011;7658;51.456;7.622;2022-12-07T06:24:00;41.20;;;25.13;;
15114;SDS011;7658;51.456;7.622;2022-12-07T06:26:27;33.53;;;22.97;;
15114;SDS011;7658;51.456;7.622;2022-12-07T06:28:53;41.53;;;24.83;;
15114;SDS011;7658;51.456;7.622;2022-12-07T06:31:18;39.20;;;24.63;;
15114;SDS011;7658;51.456;7.622;2022-12-07T06:33:44;39.00;;;23.07;;
15114;SDS011;7658;51.456;7.622;2022-12-07T06:36:10;36.33;;;22.93;;
15114;SDS011;7658;51.456;7.622;2022-12-07T06:38:36;40.30;;;23.93;;
15114;SDS011;7658;51.456;7.622;2022-12-07T06:41:02;43.80;;;25.10;;
15114;SDS011;7658;51.456;7.622;2022-12-07T06:43:28;38.13;;;23.63;;
15114;SDS011;7658;51.456;7.622;2022-12-07T06:45:54;41.13;;;25.23;;
15114;SDS011;7658;51.456;7.622;2022-12-07T06:48:20;48.37;;;27.43;;
15114;SDS011;7658;51.456;7.622;2022-12-07T06:50:47;43.10;;;27.37;;
15114;SDS011;7658;51.456;7.622;2022-12-07T06:53:13;48.57;;;28.20;;
15114;SDS011;7658;51.456;7.622;2022-12-07T06:55:39;37.67;;;25.63;;
15114;SDS011;7658;51.456;7.622;2022-12-07T06:58:04;40.60;;;26.30;;
15114;SDS011;7658;51.456;7.622;2022-12-07T07:00:30;41.50;;;27.30;;
15114;SDS011;7658;51.456;7.622;2022-12-07T07:02:56;47.93;;;26.33;;
15114;SDS011;7658;51.456;7.622;2022-12-07T07:05:22;44.97;;;26.70;;
15114;SDS011;7658;51.456;7.622;2022-12-07T07:07:50;37.17;;;24.90;;
15114;SDS011;7658;51.456;7.622;2022-12-07T07:10:16;43.93;;;27.67;;
15114;SDS011;7658;51.456;7.622;2022-12-07T07:12:42;36.30;;;25.03;;
15114;SDS011;7658;51.456;7.622;2022-12-07T07:15:08;41.17;;;26.50;;
15114;SDS011;7658;51.456;7.622;2022-12-07T07:17:34;43.90;;;26.97;;
15114;SDS011;7658;51.456;7.622;2022-12-07T07:20:00;46.60;;;27.00;;
15114;SDS011;7658;51.456;7.622;2022-12-07T07:22:26;46.90;;;28.37;;
15114;SDS011;7658;51.456;7.622;2022-12-07T07:24:51;46.57;;;28.03;;
15114;SDS011;7658;51.456;7.622;2022-12-07T07:27:17;46.03;;;29.63;;
15114;SDS011;7658;51.456;7.622;2022-12-07T07:29:44;51.97;;;29.10;;
15114;SDS011;7658;51.456;7.622;2022-12-07T07:32:10;49.20;;;31.23;;
15114;SDS011;7658;51.456;7.622;2022-12-07T07:34:35;50.80;;;31.17;;
15114;SDS011;7658;51.456;7.622;2022-12-07T07:37:01;40.87;;;27.30;;
15114;SDS011;7658;51.456;7.622;2022-12-07T07:39:27;42.07;;;25.90;;
15114;SDS011;7658;51.456;7.622;2022-12-07T07:41:53;40.60;;;24.57;;
15114;SDS011;7658;51.456;7.622;2022-12-07T07:44:18;36.20;;;22.90;;
15114;SDS011;7658;51.456;7.622;2022-12-07T07:46:44;35.80;;;23.40;;
15114;SDS011;7658;51.456;7.622;2022-12-07T07:49:10;44.93;;;25.37;;
15114;SDS011;7658;51.456;7.622;2022-12-07T07:51:36;55.33;;;26.53;;
15114;SDS011;7658;51.456;7.622;2022-12-07T07:54:02;40.63;;;25.80;;
15114;SDS011;7658;51.456;7.622;2022-12-07T07:56:28;45.97;;;25.13;;
15114;SDS011;7658;51.456;7.622;2022-12-07T07:58:54;41.53;;;26.10;;
15114;SDS011;7658;51.456;7.622;2022-12-07T08:01:20;41.20;;;25.30;;
15114;SDS011;7658;51.456;7.622;2022-12-07T08:03:46;35.90;;;23.97;;
15114;SDS011;7658;51.456;7.622;2022-12-07T08:06:12;37.80;;;23.13;;
15114;SDS011;7658;51.456;7.622;2022-12-07T08:08:38;40.20;;;25.47;;
15114;SDS011;7658;51.456;7.622;2022-12-07T08:11:07;39.00;;;24.73;;
15114;SDS011;7658;51.456;7.622;2022-12-07T08:13:34;40.93;;;24.90;;
15114;SDS011;7658;51.456;7.622;2022-12-07T08:16:03;46.57;;;25.00;;
15114;SDS011;7658;51.456;7.622;2022-12-07T08:18:37;34.60;;;23.50;;
15114;SDS011;7658;51.456;7.622;2022-12-07T08:21:05;45.70;;;25.17;;
15114;SDS011;7658;51.456;7.622;2022-12-07T08:23:32;42.23;;;23.70;;
15114;SDS011;7658;51.456;7.622;2022-12-07T08:26:02;39.00;;;23.40;;
15114;SDS011;7658;51.456;7.622;2022-12-07T08:28:29;37.13;;;22.80;;
15114;SDS011;7658;51.456;7.622;2022-12-07T08:31:02;34.80;;;22.97;;
15114;SDS011;7658;51.456;7.622;2022-12-07T08:33:30;40.90;;;24.27;;
15114;SDS011;7658;51.456;7.622;2022-12-07T08:36:07;40.23;;;21.83;;
15114;SDS011;7658;51.456;7.622;2022-12-07T08:38:37;30.97;;;21.10;;
15114;SDS011;7658;51.456;7.622;2022-12-07T08:41:04;31.00;;;21.23;;
15114;SDS011;7658;51.456;7.622;2022-12-07T08:43:31;36.57;;;21.57;;
15114;SDS011;7658;51.456;7.622;2022-12-07T08:48:26;34.10;;;20.20;;
15114;SDS011;7658;51.456;7.622;2022-12-07T08:50:52;29.33;;;20.00;;
15114;SDS011;7658;51.456;7.622;2022-12-07T08:53:18;28.93;;;18.47;;
15114;SDS011;7658;51.456;7.622;2022-12-07T08:55:46;27.10;;;17.93;;
15114;SDS011;7658;51.456;7.622;2022-12-07T08:58:12;30.63;;;18.83;;
15114;SDS011;7658;51.456;7.622;2022-12-07T09:00:38;29.63;;;19.40;;
15114;SDS011;7658;51.456;7.622;2022-12-07T09:03:04;27.73;;;18.33;;
15114;SDS011;7658;51.456;7.622;2022-12-07T09:05:30;25.17;;;17.30;;
15114;SDS011;7658;51.456;7.622;2022-12-07T09:07:59;28.67;;;17.83;;
15114;SDS011;7658;51.456;7.622;2022-12-07T09:10:26;33.13;;;19.33;;
15114;SDS011;7658;51.456;7.622;2022-12-07T09:12:52;34.37;;;19.33;;
15114;SDS011;7658;51.456;7.622;2022-12-07T09:15:18;27.30;;;18.87;;
15114;SDS011;7658;51.456;7.622;2022-12-07T09:17:44;27.37;;;18.10;;
15114;SDS011;7658;51.456;7.622;2022-12-07T09:20:10;27.53;;;17.57;;
15114;SDS011;7658;51.456;7.622;2022-12-07T09:22:36;27.90;;;17.83;;
15114;SDS011;7658;51.456;7.622;2022-12-07T09:25:02;23.67;;;16.50;;
15114;SDS011;7658;51.456;7.622;2022-12-07T09:27:28;30.23;;;18.27;;
15114;SDS011;7658;51.456;7.622;2022-12-07T09:29:55;30.43;;;18.33;;
15114;SDS011;7658;51.456;7.622;2022-12-07T09:32:21;26.93;;;17.07;;
15114;SDS011;7658;51.456;7.622;2022-12-07T09:34:47;27.30;;;18.53;;
15114;SDS011;7658;51.456;7.622;2022-12-07T09:37:13;25.73;;;17.77;;
15114;SDS011;7658;51.456;7.622;2022-12-07T09:39:39;29.93;;;18.60;;
15114;SDS011;7658;51.456;7.622;2022-12-07T09:42:06;32.20;;;20.07;;
15114;SDS011;7658;51.456;7.622;2022-12-07T09:44:33;32.17;;;20.90;;
15114;SDS011;7658;51.456;7.622;2022-12-07T09:47:00;35.63;;;21.93;;
15114;SDS011;7658;51.456;7.622;2022-12-07T09:49:30;32.87;;;22.07;;
15114;SDS011;7658;51.456;7.622;2022-12-07T09:54:39;35.97;;;21.40;;
15114;SDS011;7658;51.456;7.622;2022-12-07T09:57:08;42.80;;;24.27;;
15114;SDS011;7658;51.456;7.622;2022-12-07T09:59:37;38.80;;;24.90;;
15114;SDS011;7658;51.456;7.622;2022-12-07T10:04:58;35.33;;;23.23;;
15114;SDS011;7658;51.456;7.622;2022-12-07T10:07:24;41.23;;;23.90;;
15114;SDS011;7658;51.456;7.622;2022-12-07T10:09:50;37.53;;;23.00;;
15114;SDS011;7658;51.456;7.622;2022-12-07T10:12:15;31.70;;;22.97;;
15114;SDS011;7658;51.456;7.622;2022-12-07T10:15:02;38.27;;;23.13;;
15114;SDS011;7658;51.456;7.622;2022-12-07T10:17:36;30.97;;;22.33;;
15114;SDS011;7658;51.456;7.622;2022-12-07T10:22:37;37.70;;;24.03;;
15114;SDS011;7658;51.456;7.622;2022-12-07T10:25:36;37.57;;;24.07;;
15114;SDS011;7658;51.456;7.622;2022-12-07T10:28:16;42.07;;;24.40;;
15114;SDS011;7658;51.456;7.622;2022-12-07T10:36:01;37.70;;;24.57;;
15114;SDS011;7658;51.456;7.622;2022-12-07T10:39:03;38.67;;;25.67;;
15114;SDS011;7658;51.456;7.622;2022-12-07T10:41:56;33.77;;;24.20;;
15114;SDS011;7658;51.456;7.622;2022-12-07T10:44:24;41.87;;;26.60;;
15114;SDS011;7658;51.456;7.622;2022-12-07T10:47:04;35.73;;;27.00;;
15114;SDS011;7658;51.456;7.622;2022-12-07T10:52:35;42.70;;;28.30;;
15114;SDS011;7658;51.456;7.622;2022-12-07T10:55:27;41.70;;;27.27;;
15114;SDS011;7658;51.456;7.622;2022-12-07T10:58:37;42.53;;;27.97;;
15114;SDS011;7658;51.456;7.622;2022-12-07T11:01:23;36.23;;;25.80;;
15114;SDS011;7658;51.456;7.622;2022-12-07T11:04:11;39.30;;;26.10;;
15114;SDS011;7658;51.456;7.622;2022-12-07T11:12:01;42.50;;;25.33;;
15114;SDS011;7658;51.456;7.622;2022-12-07T11:17:20;37.60;;;23.80;;
15114;SDS011;7658;51.456;7.622;2022-12-07T11:20:29;36.70;;;26.13;;
15114;SDS011;7658;51.456;7.622;2022-12-07T11:37:20;32.63;;;22.33;;
15114;SDS011;7658;51.456;7.622;2022-12-07T11:39:54;30.53;;;19.17;;
15114;SDS011;7658;51.456;7.622;2022-12-07T11:42:29;30.33;;;19.67;;
15114;SDS011;7658;51.456;7.622;2022-12-07T11:50:26;28.37;;;17.40;;
15114;SDS011;7658;51.456;7.622;2022-12-07T11:52:59;24.43;;;17.97;;
15114;SDS011;7658;51.456;7.622;2022-12-07T12:01:25;28.27;;;16.63;;
15114;SDS011;7658;51.456;7.622;2022-12-07T12:03:56;27.83;;;17.10;;
15114;SDS011;7658;51.456;7.622;2022-12-07T12:06:40;26.33;;;14.97;;
15114;SDS011;7658;51.456;7.622;2022-12-07T12:09:14;30.00;;;16.63;;
15114;SDS011;7658;51.456;7.622;2022-12-07T12:20:43;18.43;;;14.90;;
15114;SDS011;7658;51.456;7.622;2022-12-07T12:23:24;20.47;;;14.83;;
15114;SDS011;7658;51.456;7.622;2022-12-07T12:26:03;20.20;;;14.50;;
15114;SDS011;7658;51.456;7.622;2022-12-07T12:28:34;19.03;;;15.40;;
15114;SDS011;7658;51.456;7.622;2022-12-07T12:36:24;19.37;;;14.97;;
15114;SDS011;7658;51.456;7.622;2022-12-07T12:46:46;20.33;;;12.80;;
15114;SDS011;7658;51.456;7.622;2022-12-07T12:51:49;16.80;;;11.73;;
15114;SDS011;7658;51.456;7.622;2022-12-07T12:54:21;15.57;;;11.43;;
15114;SDS011;7658;51.456;7.622;2022-12-07T13:02:39;14.17;;;10.37;;
15114;SDS011;7658;51.456;7.622;2022-12-07T13:05:19;12.77;;;9.70;;
15114;SDS011;7658;51.456;7.622;2022-12-07T13:07:49;12.37;;;9.07;;
15114;SDS011;7658;51.456;7.622;2022-12-07T13:15:42;13.27;;;9.20;;
15114;SDS011;7658;51.456;7.622;2022-12-07T13:23:21;8.50;;;7.63;;
15114;SDS011;7658;51.456;7.622;2022-12-07T13:28:36;13.20;;;8.40;;
15114;SDS011;7658;51.456;7.622;2022-12-07T13:33:42;13.00;;;7.93;;
15114;SDS011;7658;51.456;7.622;2022-12-07T13:36:55;15.50;;;7.77;;
15114;SDS011;7658;51.456;7.622;2022-12-07T13:39:10;11.33;;;7.07;;
15114;SDS011;7658;51.456;7.622;2022-12-07T13:41:42;10.67;;;7.47;;
15114;SDS011;7658;51.456;7.622;2022-12-07T13:44:10;9.37;;;7.10;;
15114;SDS011;7658;51.456;7.622;2022-12-07T13:49:25;13.37;;;7.17;;
15114;SDS011;7658;51.456;7.622;2022-12-07T13:52:06;16.77;;;6.57;;
15114;SDS011;7658;51.456;7.622;2022-12-07T13:54:55;12.03;;;7.00;;
15114;SDS011;7658;51.456;7.622;2022-12-07T13:57:21;11.83;;;7.97;;
15114;SDS011;7658;51.456;7.622;2022-12-07T13:59:49;15.93;;;9.60;;
15114;SDS011;7658;51.456;7.622;2022-12-07T14:02:19;10.63;;;8.30;;
15114;SDS011;7658;51.456;7.622;2022-12-07T14:06:02;16.97;;;10.67;;
15114;SDS011;7658;51.456;7.622;2022-12-07T14:07:55;12.37;;;9.53;;
15114;SDS011;7658;51.456;7.622;2022-12-07T14:10:26;15.60;;;11.30;;
15114;SDS011;7658;51.456;7.622;2022-12-07T14:12:54;20.97;;;11.00;;
15114;SDS011;7658;51.456;7.622;2022-12-07T14:15:25;18.63;;;10.67;;
15114;SDS011;7658;51.456;7.622;2022-12-07T14:17:54;29.87;;;16.10;;
15114;SDS011;7658;51.456;7.622;2022-12-07T14:20:31;26.50;;;16.30;;
15114;SDS011;7658;51.456;7.622;2022-12-07T14:23:02;15.60;;;12.60;;
15114;SDS011;7658;51.456;7.622;2022-12-07T14:26:03;25.07;;;15.40;;
15114;SDS011;7658;51.456;7.622;2022-12-07T14:28:31;22.57;;;12.80;;
15114;SDS011;7658;51.456;7.622;2022-12-07T14:30:58;50.80;;;26.00;;
15114;SDS011;7658;51.456;7.622;2022-12-07T14:33:25;21.00;;;14.60;;
15114;SDS011;7658;51.456;7.622;2022-12-07T14:35:51;35.00;;;22.10;;
15114;SDS011;7658;51.456;7.622;2022-12-07T14:38:20;24.07;;;15.37;;
15114;SDS011;7658;51.456;7.622;2022-12-07T14:40:46;30.63;;;19.90;;
15114;SDS011;7658;51.456;7.622;2022-12-07T14:43:15;18.90;;;14.73;;
15114;SDS011;7658;51.456;7.622;2022-12-07T14:45:42;18.20;;;12.87;;
15114;SDS011;7658;51.456;7.622;2022-12-07T14:48:11;20.00;;;13.60;;
15114;SDS011;7658;51.456;7.622;2022-12-07T14:50:41;21.50;;;12.10;;
15114;SDS011;7658;51.456;7.622;2022-12-07T14:53:13;19.87;;;13.47;;
15114;SDS011;7658;51.456;7.622;2022-12-07T14:55:40;23.43;;;13.37;;
15114;SDS011;7658;51.456;7.622;2022-12-07T14:58:10;22.83;;;12.60;;
15114;SDS011;7658;51.456;7.622;2022-12-07T15:00:41;20.93;;;11.37;;
15114;SDS011;7658;51.456;7.622;2022-12-07T15:03:07;15.30;;;10.73;;
15114;SDS011;7658;51.456;7.622;2022-12-07T15:05:33;11.60;;;10.33;;
15114;SDS011;7658;51.456;7.622;2022-12-07T15:07:59;11.67;;;8.80;;
15114;SDS011;7658;51.456;7.622;2022-12-07T15:10:28;10.93;;;8.20;;
15114;SDS011;7658;51.456;7.622;2022-12-07T15:12:59;8.30;;;7.50;;
15114;SDS011;7658;51.456;7.622;2022-12-07T15:15:45;10.23;;;7.53;;
15114;SDS011;7658;51.456;7.622;2022-12-07T15:18:12;14.20;;;8.20;;
15114;SDS011;7658;51.456;7.622;2022-12-07T15:20:38;12.07;;;8.10;;
15114;SDS011;7658;51.456;7.622;2022-12-07T15:23:04;9.47;;;8.47;;
15114;SDS011;7658;51.456;7.622;2022-12-07T15:25:30;14.47;;;10.00;;
15114;SDS011;7658;51.456;7.622;2022-12-07T15:27:56;12.77;;;9.60;;
15114;SDS011;7658;51.456;7.622;2022-12-07T15:30:21;12.33;;;9.93;;
15114;SDS011;7658;51.456;7.622;2022-12-07T15:32:50;13.83;;;9.97;;
15114;SDS011;7658;51.456;7.622;2022-12-07T15:35:16;17.40;;;11.20;;
15114;SDS011;7658;51.456;7.622;2022-12-07T15:37:42;13.17;;;11.43;;
15114;SDS011;7658;51.456;7.622;2022-12-07T15:40:08;16.17;;;11.07;;
15114;SDS011;7658;51.456;7.622;2022-12-07T15:42:35;20.93;;;11.77;;
15114;SDS011;7658;51.456;7.622;2022-12-07T15:45:01;11.73;;;10.50;;
15114;SDS011;7658;51.456;7.622;2022-12-07T15:47:38;15.27;;;11.60;;
15114;SDS011;7658;51.456;7.622;2022-12-07T15:50:06;18.07;;;12.23;;
15114;SDS011;7658;51.456;7.622;2022-12-07T15:52:34;15.00;;;12.33;;
15114;SDS011;7658;51.456;7.622;2022-12-07T15:54:59;15.80;;;12.30;;
15114;SDS011;7658;51.456;7.622;2022-12-07T15:57:27;20.57;;;12.83;;
15114;SDS011;7658;51.456;7.622;2022-12-07T15:59:53;16.00;;;12.77;;
15114;SDS011;7658;51.456;7.622;2022-12-07T16:02:19;17.07;;;13.77;;
15114;SDS011;7658;51.456;7.622;2022-12-07T16:04:45;19.00;;;14.93;;
15114;SDS011;7658;51.456;7.622;2022-12-07T16:07:11;21.27;;;13.13;;
15114;SDS011;7658;51.456;7.622;2022-12-07T16:09:39;18.27;;;14.50;;
15114;SDS011;7658;51.456;7.622;2022-12-07T16:12:05;21.00;;;14.57;;
15114;SDS011;7658;51.456;7.622;2022-12-07T16:14:31;18.13;;;15.13;;
15114;SDS011;7658;51.456;7.622;2022-12-07T16:16:58;25.63;;;18.13;;
15114;SDS011;7658;51.456;7.622;2022-12-07T16:19:24;21.90;;;16.63;;
15114;SDS011;7658;51.456;7.622;2022-12-07T16:21:50;19.80;;;16.43;;
15114;SDS011;7658;51.456;7.622;2022-12-07T16:24:16;23.83;;;17.30;;
15114;SDS011;7658;51.456;7.622;2022-12-07T16:26:42;28.23;;;16.67;;
15114;SDS011;7658;51.456;7.622;2022-12-07T16:29:12;21.27;;;16.60;;
15114;SDS011;7658;51.456;7.622;2022-12-07T16:31:38;23.50;;;16.87;;
15114;SDS011;7658;51.456;7.622;2022-12-07T16:34:04;21.50;;;16.73;;
15114;SDS011;7658;51.456;7.622;2022-12-07T16:36:31;20.57;;;15.70;;
15114;SDS011;7658;51.456;7.622;2022-12-07T16:38:58;20.20;;;16.10;;
15114;SDS011;7658;51.456;7.622;2022-12-07T16:41:24;26.40;;;16.83;;
15114;SDS011;7658;51.456;7.622;2022-12-07T16:43:50;31.63;;;22.23;;
15114;SDS011;7658;51.456;7.622;2022-12-07T16:46:16;69.37;;;42.00;;
15114;SDS011;7658;51.456;7.622;2022-12-07T16:48:41;25.87;;;19.03;;
15114;SDS011;7658;51.456;7.622;2022-12-07T16:51:08;23.07;;;17.17;;
15114;SDS011;7658;51.456;7.622;2022-12-07T16:53:36;19.53;;;16.33;;
15114;SDS011;7658;51.456;7.622;2022-12-07T16:56:04;23.47;;;17.60;;
15114;SDS011;7658;51.456;7.622;2022-12-07T16:58:34;22.00;;;17.17;;
15114;SDS011;7658;51.456;7.622;2022-12-07T17:01:08;21.50;;;17.30;;
15114;SDS011;7658;51.456;7.622;2022-12-07T17:03:34;19.63;;;15.43;;
15114;SDS011;7658;51.456;7.622;2022-12-07T17:06:01;19.93;;;14.97;;
15114;SDS011;7658;51.456;7.622;2022-12-07T17:08:26;20.70;;;15.00;;
15114;SDS011;7658;51.456;7.622;2022-12-07T17:10:52;25.03;;;16.63;;
15114;SDS011;7658;51.456;7.622;2022-12-07T17:13:18;19.93;;;14.40;;